Time;durP1;ratioP1;P1;durP2;ratioP2;P2;SDS_P1;SDS_P2;PMS_P1;PMS_P2;Temp;Humidity;BMP_temperature;BMP_pressure;BME280_temperature;BME280_humidity;BME280_pressure;Samples;Min_cycle;Max_cycle;Signal;HPM_P1;HPM_P2
2021/08/08 00:00:28;;;;;;;;;;;27.80;96.30;;;;;;1912545;74;20201;-90
2021/08/08 00:02:58;;;;;;;;;;;27.80;96.00;;;;;;1917565;74;20981;-91
2021/08/08 00:05:28;;;;;;;;;;;27.80;95.90;;;;;;1908069;74;20256;-92
2021/08/08 00:07:57;;;;;;;;;;;27.80;95.70;;;;;;1914255;73;20203;-92
2021/08/08 00:10:28;;;;;;;;;;;27.80;95.70;;;;;;1909602;73;20236;-92
2021/08/08 00:12:57;;;;;;;;;;;27.90;95.60;;;;;;1911165;73;20215;-94
2021/08/08 00:15:30;;;;;;;;;;;27.90;95.60;;;;;;1912925;74;20246;-92
2021/08/08 00:18:08;;;;;;;;;;;28.00;95.40;;;;;;1887106;74;20213;-93
2021/08/08 00:20:38;;;;;;;;;;;28.00;95.10;;;;;;1914460;74;20454;-92
2021/08/08 00:23:08;;;;;;;;;;;28.00;95.20;;;;;;1904908;74;20155;-91
2021/08/08 00:25:38;;;;;;;;;;;28.10;95.10;;;;;;1913106;74;20237;-90
2021/08/08 00:28:10;;;;;;;;;;;28.20;95.10;;;;;;1909889;74;20187;-90
2021/08/08 00:30:40;;;;;;;;;;;28.20;95.00;;;;;;1918538;74;20319;-91
2021/08/08 00:33:10;;;;;;;;;;;28.30;94.80;;;;;;1909117;74;20688;-90
2021/08/08 00:35:42;;;;;;;;;;;28.30;94.60;;;;;;1905762;74;20204;-91
2021/08/08 00:38:11;;;;;;;;;;;28.40;94.50;;;;;;1905738;74;20201;-91
2021/08/08 00:40:44;;;;;;;;;;;28.40;94.10;;;;;;1915831;74;20226;-91
2021/08/08 00:43:14;;;;;;;;;;;28.50;94.10;;;;;;1902901;74;20201;-93
2021/08/08 00:45:48;;;;;;;;;;;28.50;94.50;;;;;;1911981;74;20155;-92
2021/08/08 00:48:16;;;;;;;;;;;28.60;94.10;;;;;;1898828;74;20205;-93
2021/08/08 00:50:46;;;;;;;;;;;28.60;93.90;;;;;;1889546;74;20449;-90
2021/08/08 00:53:15;;;;;;;;;;;28.60;93.50;;;;;;1898931;74;20452;-92
2021/08/08 00:55:56;;;;;;;;;;;28.60;93.60;;;;;;1909840;74;20678;-91
2021/08/08 00:58:29;;;;;;;;;;;28.70;93.60;;;;;;1911496;74;20169;-91
2021/08/08 01:00:59;;;;;;;;;;;28.70;93.20;;;;;;1911617;74;20189;-93
2021/08/08 01:03:31;;;;;;;;;;;28.80;93.10;;;;;;1915854;74;20305;-90
2021/08/08 01:06:02;;;;;;;;;;;28.80;92.80;;;;;;1921810;74;20596;-90
2021/08/08 01:08:36;;;;;;;;;;;28.90;92.70;;;;;;1911744;74;20555;-92
2021/08/08 01:11:06;;;;;;;;;;;28.90;92.50;;;;;;1909900;74;20310;-93
2021/08/08 01:13:36;;;;;;;;;;;29.00;92.50;;;;;;1910516;74;20201;-93
2021/08/08 01:16:06;;;;;;;;;;;29.10;92.50;;;;;;1912265;74;20179;-93
2021/08/08 01:18:36;;;;;;;;;;;29.10;92.40;;;;;;1906778;74;20190;-93
2021/08/08 01:21:06;;;;;;;;;;;29.20;92.20;;;;;;1910975;74;20128;-94
2021/08/08 01:23:37;;;;;;;;;;;29.20;92.10;;;;;;1911034;74;20171;-94
2021/08/08 01:26:08;;;;;;;;;;;29.20;92.00;;;;;;1912130;74;20524;-93
2021/08/08 01:28:38;;;;;;;;;;;29.30;91.70;;;;;;1907276;74;20242;-95
2021/08/08 01:31:08;;;;;;;;;;;29.40;91.50;;;;;;1910835;74;20280;-93
2021/08/08 01:33:38;;;;;;;;;;;29.40;91.50;;;;;;1905598;74;20209;-91
2021/08/08 01:36:07;;;;;;;;;;;29.40;91.30;;;;;;1906656;74;20173;-93
2021/08/08 01:38:43;;;;;;;;;;;29.50;91.00;;;;;;1907374;74;20201;-94
2021/08/08 01:41:10;;;;;;;;;;;29.50;90.80;;;;;;1903957;74;20212;-92
2021/08/08 01:43:43;;;;;;;;;;;29.60;90.90;;;;;;1892734;75;20234;-91
2021/08/08 01:46:14;;;;;;;;;;;29.70;90.90;;;;;;1903250;75;20189;-92
2021/08/08 01:48:49;;;;;;;;;;;29.70;90.90;;;;;;1904401;75;20170;-92
2021/08/08 01:51:19;;;;;;;;;;;29.80;90.60;;;;;;1908750;74;20441;-92
2021/08/08 01:53:49;;;;;;;;;;;29.90;90.60;;;;;;1904892;74;20436;-94
2021/08/08 01:56:19;;;;;;;;;;;30.10;90.50;;;;;;1906891;74;20227;-93
2021/08/08 01:58:48;;;;;;;;;;;30.20;90.10;;;;;;1903933;75;20221;-94
2021/08/08 02:01:18;;;;;;;;;;;30.30;89.30;;;;;;1904916;74;20891;-95
2021/08/08 02:03:49;;;;;;;;;;;30.30;88.00;;;;;;1904443;75;20218;-90
2021/08/08 02:06:20;;;;;;;;;;;30.40;86.80;;;;;;1900056;75;20142;-91
2021/08/08 02:08:51;;;;;;;;;;;30.50;87.30;;;;;;1903504;75;20644;-92
2021/08/08 02:11:21;;;;;;;;;;;30.60;87.50;;;;;;1903253;74;20132;-93
2021/08/08 02:13:52;;;;;;;;;;;30.70;87.40;;;;;;1900347;74;20174;-94
2021/08/08 02:16:26;;;;;;;;;;;30.80;86.80;;;;;;1899772;75;20178;-93
2021/08/08 02:18:56;;;;;;;;;;;30.90;85.30;;;;;;1881372;74;20223;-90
2021/08/08 02:21:26;;;;;;;;;;;31.00;85.20;;;;;;1899775;75;20172;-91
2021/08/08 02:23:58;;;;;;;;;;;31.10;85.20;;;;;;1900705;75;20487;-90
2021/08/08 02:26:28;;;;;;;;;;;31.10;84.30;;;;;;1905348;73;20209;-93
2021/08/08 02:28:58;;;;;;;;;;;31.30;85.40;;;;;;1899609;75;20124;-93
2021/08/08 02:31:29;;;;;;;;;;;31.40;83.70;;;;;;1901471;75;20206;-91
2021/08/08 02:33:58;;;;;;;;;;;31.50;82.80;;;;;;1900584;73;20213;-90
2021/08/08 02:36:28;;;;;;;;;;;31.50;82.00;;;;;;1900232;75;20493;-92
2021/08/08 02:38:58;;;;;;;;;;;31.50;82.10;;;;;;1898985;75;20279;-91
2021/08/08 02:41:27;;;;;;;;;;;31.40;83.00;;;;;;1903545;74;20170;-92
2021/08/08 02:43:57;;;;;;;;;;;31.40;84.00;;;;;;1901975;73;20221;-93
2021/08/08 02:46:27;;;;;;;;;;;31.40;83.90;;;;;;1902354;73;20220;-93
2021/08/08 02:48:59;;;;;;;;;;;31.60;83.60;;;;;;1905781;73;20178;-92
2021/08/08 02:51:32;;;;;;;;;;;31.80;82.10;;;;;;1901108;74;20159;-92
2021/08/08 02:54:02;;;;;;;;;;;31.80;81.50;;;;;;1908242;72;20113;-91
2021/08/08 02:56:32;;;;;;;;;;;31.90;81.30;;;;;;1907687;72;20235;-90
2021/08/08 02:59:06;;;;;;;;;;;32.00;82.00;;;;;;1906884;72;20219;-90
2021/08/08 03:01:35;;;;;;;;;;;32.10;80.60;;;;;;1883287;73;20167;-91
2021/08/08 03:04:05;;;;;;;;;;;32.20;80.00;;;;;;1906339;72;20229;-91
2021/08/08 03:06:35;;;;;;;;;;;32.30;79.60;;;;;;1895579;74;20257;-90
2021/08/08 03:09:04;;;;;;;;;;;32.40;78.10;;;;;;1900687;74;20164;-91
2021/08/08 03:11:45;;;;;;;;;;;;;;;;;;;;;
2021/08/08 03:14:24;;;;;;;;;;;32.60;74.80;;;;;;1782536;79;20207;-88
2021/08/08 03:16:54;;;;;;;;;;;32.60;75.30;;;;;;1779139;80;20226;-92
2021/08/08 03:19:25;;;;;;;;;;;32.70;75.20;;;;;;1782381;80;20300;-92
2021/08/08 03:21:54;;;;;;;;;;;32.80;74.70;;;;;;1767385;80;20347;-91
2021/08/08 03:24:38;;;;;;;;;;;33.00;73.40;;;;;;1785785;80;20308;-92
2021/08/08 03:27:23;;;;;;;;;;;33.10;73.30;;;;;;1779361;80;20737;-93
2021/08/08 03:33:05;;;;;;;;;;;33.20;73.40;;;;;;1782547;80;20147;-92
2021/08/08 03:35:35;;;;;;;;;;;33.20;73.50;;;;;;1773843;80;20224;-92
2021/08/08 03:38:08;;;;;;;;;;;33.30;73.20;;;;;;1777483;80;20231;-92
2021/08/08 03:40:38;;;;;;;;;;;33.40;73.00;;;;;;1775096;79;20668;-89
2021/08/08 03:43:08;;;;;;;;;;;33.50;71.50;;;;;;1785175;79;20489;-92
2021/08/08 03:45:38;;;;;;;;;;;33.60;71.30;;;;;;1778108;81;20229;-93
2021/08/08 03:48:07;;;;;;;;;;;33.60;71.40;;;;;;1768781;79;20235;-90
2021/08/08 03:50:39;;;;;;;;;;;33.80;68.50;;;;;;1790899;76;20636;-91
2021/08/08 03:53:08;;;;;;;;;;;33.90;67.90;;;;;;1909296;74;20223;-88
2021/08/08 03:56:15;;;;;;;;;;;34.00;65.80;;;;;;1894147;74;20481;-91
2021/08/08 03:58:43;;;;;;;;;;;34.00;65.20;;;;;;1855717;77;20209;-89
2021/08/08 04:01:13;;;;;;;;;;;34.10;66.50;;;;;;1861367;76;20215;-87
2021/08/08 04:03:46;;;;;;;;;;;34.20;65.90;;;;;;1857032;76;20184;-90
2021/08/08 04:06:16;;;;;;;;;;;34.20;65.80;;;;;;1855523;76;20228;-91
2021/08/08 04:08:46;;;;;;;;;;;34.30;64.50;;;;;;1852261;76;20219;-88
2021/08/08 04:12:22;;;;;;;;;;;34.30;64.90;;;;;;1856900;76;20203;-91
2021/08/08 04:14:20;;;;;;;;;;;34.50;64.50;;;;;;1850684;76;20283;-91
2021/08/08 04:16:51;;;;;;;;;;;34.80;65.90;;;;;;1861505;76;20514;-91
2021/08/08 04:19:24;;;;;;;;;;;34.60;63.10;;;;;;1863603;76;20197;-94
2021/08/08 04:24:54;;;;;;;;;;;34.70;63.90;;;;;;1822494;77;20223;-90
2021/08/08 04:39:36;;;;;;;;;;;34.90;64.40;;;;;;1756014;80;20129;-92
2021/08/08 04:42:38;;;;;;;;;;;;;;;;;;;;;
2021/08/08 04:45:22;;;;;;;;;;;35.10;62.50;;;;;;1917395;74;20228;-89
2021/08/08 04:48:10;;;;;;;;;;;35.10;61.80;;;;;;1871801;75;20256;-90
2021/08/08 04:50:42;;;;;;;;;;;35.10;61.30;;;;;;1905960;75;20165;-91
2021/08/08 04:53:12;;;;;;;;;;;35.10;62.00;;;;;;1919265;74;20429;-90
2021/08/08 04:55:43;;;;;;;;;;;35.10;60.60;;;;;;1917508;74;20206;-91
2021/08/08 04:58:13;;;;;;;;;;;35.10;60.60;;;;;;1908995;74;20140;-90
2021/08/08 05:00:46;;;;;;;;;;;35.10;61.40;;;;;;1913309;74;20256;-92
2021/08/08 05:03:19;;;;;;;;;;;35.10;60.60;;;;;;1911824;74;20241;-88
2021/08/08 05:05:50;;;;;;;;;;;35.20;60.50;;;;;;1911632;74;20193;-92
2021/08/08 05:08:19;;;;;;;;;;;35.10;60.60;;;;;;1909273;74;20155;-92
2021/08/08 05:10:49;;;;;;;;;;;35.20;60.20;;;;;;1914111;74;20213;-92
2021/08/08 05:13:20;;;;;;;;;;;35.20;59.00;;;;;;1917299;74;20488;-93
2021/08/08 05:15:52;;;;;;;;;;;35.20;59.30;;;;;;1910428;74;20134;-90
2021/08/08 05:18:21;;;;;;;;;;;35.30;60.90;;;;;;1913534;74;20222;-88
2021/08/08 05:20:51;;;;;;;;;;;;;;;;;;1912827;74;20185;-89
2021/08/08 05:23:21;;;;;;;;;;;35.40;59.80;;;;;;1912625;74;20228;-93
2021/08/08 05:25:57;;;;;;;;;;;35.50;60.00;;;;;;1911410;74;20273;-91
2021/08/08 05:28:23;;;;;;;;;;;35.60;60.80;;;;;;1917225;74;20205;-88
2021/08/08 05:30:54;;;;;;;;;;;35.70;59.90;;;;;;1916171;74;20256;-88
2021/08/08 05:33:24;;;;;;;;;;;35.80;59.30;;;;;;1883290;74;20297;-91
2021/08/08 05:35:53;;;;;;;;;;;35.70;58.50;;;;;;1911934;74;20165;-90
2021/08/08 05:38:24;;;;;;;;;;;35.70;59.80;;;;;;1909579;74;20213;-89
2021/08/08 05:40:54;;;;;;;;;;;35.80;59.00;;;;;;1906481;74;20208;-91
2021/08/08 05:43:25;;;;;;;;;;;35.90;59.20;;;;;;1911649;75;20231;-92
2021/08/08 05:45:55;;;;;;;;;;;36.00;59.60;;;;;;1904315;75;20191;-91
2021/08/08 05:48:24;;;;;;;;;;;35.90;59.70;;;;;;1895013;75;20131;-93
2021/08/08 05:50:54;;;;;;;;;;;35.90;59.50;;;;;;1901872;74;20161;-90
2021/08/08 05:53:23;;;;;;;;;;;35.90;59.50;;;;;;1907671;74;20504;-92
2021/08/08 05:55:53;;;;;;;;;;;35.80;59.70;;;;;;1900798;75;20176;-92
2021/08/08 05:58:24;;;;;;;;;;;35.80;59.10;;;;;;1902628;75;20761;-89
2021/08/08 06:00:54;;;;;;;;;;;35.70;60.00;;;;;;1899286;74;20158;-92
2021/08/08 06:03:24;;;;;;;;;;;35.60;60.40;;;;;;1828672;78;20435;-93
2021/08/08 06:05:53;;;;;;;;;;;35.60;59.50;;;;;;1817054;79;20243;-91
2021/08/08 06:08:23;;;;;;;;;;;35.60;59.50;;;;;;1837423;77;20207;-92
2021/08/08 06:10:53;;;;;;;;;;;35.50;60.20;;;;;;1844314;78;20197;-92
2021/08/08 06:13:23;;;;;;;;;;;35.40;60.90;;;;;;1836058;77;20188;-94
2021/08/08 06:15:52;;;;;;;;;;;35.30;61.10;;;;;;1843423;77;20205;-92
2021/08/08 06:18:22;;;;;;;;;;;35.20;61.90;;;;;;1841778;78;20178;-92
2021/08/08 06:20:52;;;;;;;;;;;35.20;62.10;;;;;;1846371;78;20210;-92
2021/08/08 06:23:21;;;;;;;;;;;35.30;60.40;;;;;;1830131;77;20206;-92
2021/08/08 06:25:52;;;;;;;;;;;35.30;60.50;;;;;;1835078;77;20194;-92
2021/08/08 06:28:22;;;;;;;;;;;35.30;61.90;;;;;;1839337;78;20262;-93
2021/08/08 06:30:52;;;;;;;;;;;35.30;61.80;;;;;;1841778;78;20133;-93
2021/08/08 06:33:22;;;;;;;;;;;35.30;60.90;;;;;;1841291;77;20332;-93
2021/08/08 06:35:53;;;;;;;;;;;35.30;61.30;;;;;;1847631;78;20225;-93
2021/08/08 06:38:22;;;;;;;;;;;35.30;61.40;;;;;;1840522;77;20225;-91
2021/08/08 06:40:52;;;;;;;;;;;35.30;61.60;;;;;;1844559;77;20150;-92
2021/08/08 06:43:22;;;;;;;;;;;35.30;61.60;;;;;;1841273;77;20227;-93
2021/08/08 06:45:51;;;;;;;;;;;35.30;62.50;;;;;;1841916;77;20275;-92
2021/08/08 06:48:23;;;;;;;;;;;35.30;62.30;;;;;;1863807;76;20181;-93
2021/08/08 06:50:55;;;;;;;;;;;35.30;61.80;;;;;;1827443;78;20183;-92
2021/08/08 06:53:24;;;;;;;;;;;35.30;62.20;;;;;;1860785;76;20122;-93
2021/08/08 06:55:54;;;;;;;;;;;35.30;60.80;;;;;;1859669;76;20231;-87
2021/08/08 06:58:23;;;;;;;;;;;35.30;61.80;;;;;;1834351;78;20179;-95
2021/08/08 07:00:53;;;;;;;;;;;35.40;61.60;;;;;;1842516;77;20164;-93
2021/08/08 07:03:23;;;;;;;;;;;35.50;61.10;;;;;;1835166;78;20302;-90
2021/08/08 07:05:53;;;;;;;;;;;35.60;61.20;;;;;;1857018;75;20205;-93
2021/08/08 07:08:22;;;;;;;;;;;35.60;60.40;;;;;;1855664;75;20489;-92
2021/08/08 07:10:52;;;;;;;;;;;35.70;60.80;;;;;;1855545;75;20220;-93
2021/08/08 07:13:22;;;;;;;;;;;35.80;60.70;;;;;;1824979;76;20240;-91
2021/08/08 07:15:51;;;;;;;;;;;35.80;60.40;;;;;;1828117;76;20183;-91
2021/08/08 07:18:21;;;;;;;;;;;35.80;60.10;;;;;;1852720;75;20183;-92
2021/08/08 07:20:50;;;;;;;;;;;35.80;60.10;;;;;;1820152;78;20246;-91
2021/08/08 07:23:20;;;;;;;;;;;35.80;60.10;;;;;;1862051;76;20584;-90
2021/08/08 07:25:50;;;;;;;;;;;35.90;59.70;;;;;;1854985;76;20246;-90
2021/08/08 07:28:19;;;;;;;;;;;36.00;59.80;;;;;;1838822;77;20278;-94
2021/08/08 07:30:49;;;;;;;;;;;36.10;59.20;;;;;;1840590;78;20498;-91
2021/08/08 07:33:19;;;;;;;;;;;36.10;59.00;;;;;;1836354;78;20172;-93
2021/08/08 07:35:50;;;;;;;;;;;36.10;58.90;;;;;;1840773;78;20452;-93
2021/08/08 07:38:20;;;;;;;;;;;35.90;58.80;;;;;;1837344;77;20474;-92
2021/08/08 07:40:50;;;;;;;;;;;35.90;59.30;;;;;;1834637;77;20190;-91
2021/08/08 07:43:20;;;;;;;;;;;35.90;59.30;;;;;;1914367;74;20207;-88
2021/08/08 07:45:50;;;;;;;;;;;35.80;60.00;;;;;;1922180;73;20183;-89
2021/08/08 07:48:22;;;;;;;;;;;35.70;59.90;;;;;;1933311;74;20140;-93
2021/08/08 07:50:52;;;;;;;;;;;35.70;59.70;;;;;;1926095;74;20134;-92
2021/08/08 07:53:22;;;;;;;;;;;35.60;59.90;;;;;;1920960;74;20195;-91
2021/08/08 07:55:55;;;;;;;;;;;35.60;59.50;;;;;;1924186;74;20173;-93
2021/08/08 07:58:23;;;;;;;;;;;35.50;60.10;;;;;;1926136;74;20120;-88
2021/08/08 08:00:53;;;;;;;;;;;35.50;60.40;;;;;;1927156;74;20257;-90
2021/08/08 08:03:23;;;;;;;;;;;35.50;59.70;;;;;;1925264;74;20348;-92
2021/08/08 08:05:53;;;;;;;;;;;35.40;60.00;;;;;;1932011;74;20163;-91
2021/08/08 08:08:22;;;;;;;;;;;35.50;60.00;;;;;;1933498;74;20231;-92
2021/08/08 08:10:52;;;;;;;;;;;35.60;59.30;;;;;;1925153;73;20177;-90
2021/08/08 08:13:22;;;;;;;;;;;35.60;58.90;;;;;;1913478;73;20201;-88
2021/08/08 08:15:52;;;;;;;;;;;35.70;58.70;;;;;;1923541;73;20224;-89
2021/08/08 08:18:21;;;;;;;;;;;35.80;58.70;;;;;;1921470;74;20147;-91
2021/08/08 08:20:51;;;;;;;;;;;35.70;59.00;;;;;;1925626;74;20210;-92
2021/08/08 08:23:21;;;;;;;;;;;35.70;59.00;;;;;;1921034;73;20339;-93
2021/08/08 08:25:51;;;;;;;;;;;35.70;58.90;;;;;;1916737;73;20814;-92
2021/08/08 08:28:20;;;;;;;;;;;35.70;59.00;;;;;;1916443;73;20179;-92
2021/08/08 08:30:50;;;;;;;;;;;35.80;58.80;;;;;;1923430;73;20240;-93
2021/08/08 08:33:20;;;;;;;;;;;35.90;58.40;;;;;;1907926;74;20185;-90
2021/08/08 08:35:55;;;;;;;;;;;35.80;59.10;;;;;;1924407;73;20164;-92
2021/08/08 08:38:24;;;;;;;;;;;35.80;58.60;;;;;;1925330;74;20210;-92
2021/08/08 08:40:54;;;;;;;;;;;35.70;58.60;;;;;;1922755;74;20218;-89
2021/08/08 08:43:25;;;;;;;;;;;35.80;58.70;;;;;;1926957;74;20176;-92
2021/08/08 08:45:55;;;;;;;;;;;35.80;57.80;;;;;;1923128;74;20166;-92
2021/08/08 08:48:26;;;;;;;;;;;35.80;57.60;;;;;;1919788;74;20206;-89
2021/08/08 08:51:02;;;;;;;;;;;35.80;58.60;;;;;;1927461;74;20192;-92
2021/08/08 08:53:32;;;;;;;;;;;35.90;57.90;;;;;;1851136;76;20660;-87
2021/08/08 08:56:02;;;;;;;;;;;35.90;57.80;;;;;;1856863;77;20209;-87
2021/08/08 08:58:32;;;;;;;;;;;36.00;57.30;;;;;;1882066;75;20494;-90
2021/08/08 09:01:02;;;;;;;;;;;36.00;57.70;;;;;;1877506;75;20265;-92
2021/08/08 09:03:32;;;;;;;;;;;35.90;57.60;;;;;;1881438;76;20230;-91
2021/08/08 09:06:03;;;;;;;;;;;36.00;57.50;;;;;;1849197;77;20130;-92
2021/08/08 09:08:34;;;;;;;;;;;36.00;57.30;;;;;;1856240;77;20201;-91
2021/08/08 09:11:05;;;;;;;;;;;35.90;57.30;;;;;;1877602;76;20207;-92
2021/08/08 09:13:40;;;;;;;;;;;35.90;57.60;;;;;;1926688;74;20163;-91
2021/08/08 09:16:08;;;;;;;;;;;35.90;57.40;;;;;;1929051;74;20157;-88
2021/08/08 09:18:39;;;;;;;;;;;35.90;57.00;;;;;;1920046;74;20171;-91
2021/08/08 09:21:12;;;;;;;;;;;35.90;57.50;;;;;;1924219;74;20217;-92
2021/08/08 09:23:43;;;;;;;;;;;36.00;57.70;;;;;;1930150;74;20211;-89
2021/08/08 09:26:13;;;;;;;;;;;36.00;57.00;;;;;;1919004;74;20217;-93
2021/08/08 09:28:54;;;;;;;;;;;36.00;57.00;;;;;;1931938;74;20172;-91
2021/08/08 09:31:22;;;;;;;;;;;35.90;57.60;;;;;;1914245;74;20209;-91
2021/08/08 09:33:52;;;;;;;;;;;35.90;56.90;;;;;;1920572;73;20253;-89
2021/08/08 09:36:21;;;;;;;;;;;35.80;57.20;;;;;;1876534;75;20243;-91
2021/08/08 09:38:52;;;;;;;;;;;35.70;57.60;;;;;;1857655;76;20192;-89
2021/08/08 09:41:23;;;;;;;;;;;35.60;57.40;;;;;;1862470;72;20211;-90
2021/08/08 09:43:53;;;;;;;;;;;35.40;59.30;;;;;;1880307;73;20188;-92
2021/08/08 09:46:22;;;;;;;;;;;35.40;60.50;;;;;;1877154;74;20571;-91
2021/08/08 09:48:52;;;;;;;;;;;35.30;63.40;;;;;;1878751;73;20187;-92
2021/08/08 09:51:22;;;;;;;;;;;35.20;63.90;;;;;;1915204;74;20221;-89
2021/08/08 09:54:00;;;;;;;;;;;35.10;64.50;;;;;;1905784;75;20163;-89
2021/08/08 09:56:32;;;;;;;;;;;35.00;64.90;;;;;;1913286;75;20206;-90
2021/08/08 09:59:03;;;;;;;;;;;34.90;65.10;;;;;;1905295;74;20250;-90
2021/08/08 10:01:34;;;;;;;;;;;34.90;64.90;;;;;;1898410;74;20256;-88
2021/08/08 10:04:04;;;;;;;;;;;34.80;65.50;;;;;;1822693;78;20236;-89
2021/08/08 10:06:35;;;;;;;;;;;34.80;65.50;;;;;;1867817;77;20218;-91
2021/08/08 10:09:08;;;;;;;;;;;34.70;66.10;;;;;;1805385;77;20212;-90
2021/08/08 10:11:46;;;;;;;;;;;34.70;65.90;;;;;;1802228;78;20166;-92
2021/08/08 10:14:15;;;;;;;;;;;34.60;66.60;;;;;;1846911;77;20698;-91
2021/08/08 10:16:47;;;;;;;;;;;34.50;67.30;;;;;;1859139;76;20127;-88
2021/08/08 10:19:18;;;;;;;;;;;34.50;67.30;;;;;;1862100;75;20166;-92
2021/08/08 10:21:48;;;;;;;;;;;34.50;67.10;;;;;;1906534;74;20186;-89
2021/08/08 10:24:19;;;;;;;;;;;34.40;65.80;;;;;;1908458;74;20271;-87
2021/08/08 10:30:11;;;;;;;;;;;34.30;66.20;;;;;;1822669;77;20259;-87
2021/08/08 10:32:48;;;;;;;;;;;34.20;66.90;;;;;;1824751;78;20201;-88
2021/08/08 10:35:19;;;;;;;;;;;34.10;67.70;;;;;;1818750;78;20210;-89
2021/08/08 10:37:50;;;;;;;;;;;34.00;68.10;;;;;;1825714;76;20170;-89
2021/08/08 10:40:24;;;;;;;;;;;33.90;68.50;;;;;;1796186;79;20227;-89
2021/08/08 10:42:54;;;;;;;;;;;33.90;68.40;;;;;;1821997;77;20633;-88
2021/08/08 10:45:25;;;;;;;;;;;33.80;68.80;;;;;;1811878;77;20211;-89
2021/08/08 10:47:56;;;;;;;;;;;33.70;68.90;;;;;;1817587;77;20237;-88
2021/08/08 10:50:27;;;;;;;;;;;33.60;69.30;;;;;;1818335;78;20260;-88
2021/08/08 10:53:00;;;;;;;;;;;33.50;69.10;;;;;;1813736;78;20303;-88
2021/08/08 10:55:30;;;;;;;;;;;33.40;69.20;;;;;;1813726;78;20213;-87
2021/08/08 10:58:01;;;;;;;;;;;33.40;69.30;;;;;;1815553;78;20209;-88
2021/08/08 11:00:32;;;;;;;;;;;33.30;69.10;;;;;;1818819;78;20179;-88
2021/08/08 11:03:06;;;;;;;;;;;33.30;68.90;;;;;;1822882;78;20229;-89
2021/08/08 11:05:42;;;;;;;;;;;33.20;68.90;;;;;;1818009;78;20470;-89
2021/08/08 11:08:12;;;;;;;;;;;33.20;69.20;;;;;;1889857;74;20202;-88
2021/08/08 11:10:43;;;;;;;;;;;33.10;69.20;;;;;;1869470;75;20481;-89
2021/08/08 11:13:15;;;;;;;;;;;33.00;69.00;;;;;;1881498;74;20158;-89
2021/08/08 11:15:45;;;;;;;;;;;33.00;68.80;;;;;;1875741;74;20186;-87
2021/08/08 11:18:17;;;;;;;;;;;33.00;68.40;;;;;;1889204;74;20201;-87
2021/08/08 11:20:47;;;;;;;;;;;33.00;68.70;;;;;;1895489;74;20577;-85
2021/08/08 11:23:18;;;;;;;;;;;32.90;68.90;;;;;;1892699;74;20157;-87
2021/08/08 11:25:51;;;;;;;;;;;32.90;69.20;;;;;;1892907;74;20247;-88
2021/08/08 11:28:21;;;;;;;;;;;32.90;69.40;;;;;;1889287;74;20182;-86
2021/08/08 11:30:52;;;;;;;;;;;32.90;69.40;;;;;;1895082;74;20580;-87
2021/08/08 11:33:23;;;;;;;;;;;32.80;69.70;;;;;;1892900;74;20228;-88
2021/08/08 11:35:57;;;;;;;;;;;32.80;69.90;;;;;;1899677;75;20239;-87
2021/08/08 11:38:40;;;;;;;;;;;32.80;70.10;;;;;;1854206;76;20196;-89
2021/08/08 11:41:10;;;;;;;;;;;32.80;71.20;;;;;;1826874;78;20241;-89
2021/08/08 11:43:39;;;;;;;;;;;32.70;70.50;;;;;;1840932;76;20196;-90
2021/08/08 11:46:15;;;;;;;;;;;32.70;70.70;;;;;;1892173;74;20193;-88
2021/08/08 11:48:53;;;;;;;;;;;32.70;71.00;;;;;;1902629;74;20164;-89
2021/08/08 11:51:23;;;;;;;;;;;32.70;71.30;;;;;;1902261;74;20155;-89
2021/08/08 11:53:54;;;;;;;;;;;32.60;71.40;;;;;;1898310;75;20444;-90
2021/08/08 11:56:28;;;;;;;;;;;32.60;71.40;;;;;;1896041;74;20160;-88
2021/08/08 11:59:13;;;;;;;;;;;32.60;71.40;;;;;;1878041;75;20331;-88
2021/08/08 12:01:30;;;;;;;;;;;32.60;71.90;;;;;;1895859;75;20118;-89
2021/08/08 12:04:03;;;;;;;;;;;32.60;72.20;;;;;;1897481;74;20199;-88
2021/08/08 12:06:35;;;;;;;;;;;32.50;72.80;;;;;;1835482;77;20213;-88
2021/08/08 12:09:04;;;;;;;;;;;32.50;73.20;;;;;;1810060;78;20448;-90
2021/08/08 12:11:35;;;;;;;;;;;32.40;73.40;;;;;;1898192;75;20152;-88
2021/08/08 12:14:06;;;;;;;;;;;32.40;73.70;;;;;;1895848;75;20185;-88
2021/08/08 12:16:37;;;;;;;;;;;32.40;74.10;;;;;;1892467;75;20214;-89
2021/08/08 12:19:07;;;;;;;;;;;32.30;73.90;;;;;;1900704;75;20132;-90
2021/08/08 12:21:40;;;;;;;;;;;32.30;73.90;;;;;;1894665;75;20277;-91
2021/08/08 12:24:13;;;;;;;;;;;32.30;73.90;;;;;;1899060;74;20461;-91
2021/08/08 12:26:44;;;;;;;;;;;32.30;73.80;;;;;;1903342;75;20187;-90
2021/08/08 12:29:17;;;;;;;;;;;32.20;73.90;;;;;;1897751;74;20255;-90
2021/08/08 12:32:06;;;;;;;;;;;32.20;74.20;;;;;;1902941;74;20212;-91
2021/08/08 12:34:36;;;;;;;;;;;32.10;74.80;;;;;;1898321;74;20185;-90
2021/08/08 12:37:07;;;;;;;;;;;32.10;75.00;;;;;;1898892;74;20229;-88
2021/08/08 12:39:37;;;;;;;;;;;32.00;75.00;;;;;;1904759;75;20186;-89
2021/08/08 12:42:08;;;;;;;;;;;32.10;75.80;;;;;;1896207;75;20162;-89
2021/08/08 12:44:37;;;;;;;;;;;32.10;76.40;;;;;;1900976;75;20146;-88
2021/08/08 12:47:10;;;;;;;;;;;32.00;76.70;;;;;;1899323;75;20147;-91
2021/08/08 12:50:01;;;;;;;;;;;32.00;77.10;;;;;;1891931;74;20239;-91
2021/08/08 12:52:19;;;;;;;;;;;31.90;77.40;;;;;;1891059;75;20153;-92
2021/08/08 12:54:51;;;;;;;;;;;31.80;77.60;;;;;;1906302;75;20171;-92
2021/08/08 12:57:23;;;;;;;;;;;31.80;78.00;;;;;;1903781;75;20486;-91
2021/08/08 13:00:10;;;;;;;;;;;31.80;78.10;;;;;;1864640;76;20248;-90
2021/08/08 13:02:43;;;;;;;;;;;31.70;78.00;;;;;;1866308;76;20255;-91
2021/08/08 13:05:13;;;;;;;;;;;31.70;78.40;;;;;;1832850;78;20249;-90
2021/08/08 13:07:43;;;;;;;;;;;31.70;78.60;;;;;;1835850;77;20191;-89
2021/08/08 13:10:16;;;;;;;;;;;31.70;78.70;;;;;;1825660;77;20187;-91
2021/08/08 13:12:56;;;;;;;;;;;31.70;78.60;;;;;;1837583;77;20131;-91
2021/08/08 13:15:20;;;;;;;;;;;31.70;78.60;;;;;;1836137;78;20177;-91
2021/08/08 13:17:51;;;;;;;;;;;31.70;79.50;;;;;;1833675;77;20235;-90
2021/08/08 13:20:28;;;;;;;;;;;31.80;79.00;;;;;;1836599;77;20215;-92
2021/08/08 13:22:57;;;;;;;;;;;31.80;79.10;;;;;;1832505;78;20168;-92
2021/08/08 13:25:28;;;;;;;;;;;31.70;79.30;;;;;;1837326;78;20139;-89
2021/08/08 13:28:05;;;;;;;;;;;31.70;79.50;;;;;;1836489;78;20186;-89
2021/08/08 13:30:31;;;;;;;;;;;31.60;79.90;;;;;;1833154;76;20170;-91
2021/08/08 13:33:09;;;;;;;;;;;31.50;79.70;;;;;;1832620;78;20172;-91
2021/08/08 13:35:44;;;;;;;;;;;31.50;80.00;;;;;;1838536;77;20361;-88
2021/08/08 13:38:15;;;;;;;;;;;31.50;80.10;;;;;;1840340;78;20139;-91
2021/08/08 13:40:45;;;;;;;;;;;31.50;80.50;;;;;;1841543;77;20223;-91
2021/08/08 13:43:15;;;;;;;;;;;31.50;80.50;;;;;;1839824;78;20187;-91
2021/08/08 13:45:44;;;;;;;;;;;31.50;80.70;;;;;;1837918;77;20168;-91
2021/08/08 13:48:14;;;;;;;;;;;31.50;80.60;;;;;;1837364;77;20184;-91
2021/08/08 13:50:45;;;;;;;;;;;31.50;81.10;;;;;;1837279;77;20210;-89
2021/08/08 13:53:17;;;;;;;;;;;31.40;81.20;;;;;;1822112;78;20239;-89
2021/08/08 13:55:50;;;;;;;;;;;31.40;81.50;;;;;;1841016;76;20198;-91
2021/08/08 13:58:21;;;;;;;;;;;31.40;81.90;;;;;;1834193;76;20194;-92
2021/08/08 14:00:50;;;;;;;;;;;31.30;82.00;;;;;;1875016;76;20195;-90
2021/08/08 14:03:22;;;;;;;;;;;31.30;82.20;;;;;;1844528;78;20185;-91
2021/08/08 14:05:52;;;;;;;;;;;31.30;82.50;;;;;;1819577;78;20727;-89
2021/08/08 14:08:22;;;;;;;;;;;31.20;82.90;;;;;;1846700;78;20177;-90
2021/08/08 14:10:52;;;;;;;;;;;31.20;83.20;;;;;;1843354;77;20253;-92
2021/08/08 14:13:23;;;;;;;;;;;31.20;83.50;;;;;;1845872;77;20225;-90
2021/08/08 14:15:53;;;;;;;;;;;31.10;83.60;;;;;;1843479;77;20175;-90
2021/08/08 14:18:22;;;;;;;;;;;31.10;83.70;;;;;;1845176;77;20295;-90
2021/08/08 14:20:53;;;;;;;;;;;31.00;84.00;;;;;;1833770;76;20165;-92
2021/08/08 14:23:23;;;;;;;;;;;31.00;84.10;;;;;;1846704;77;20212;-92
2021/08/08 14:25:53;;;;;;;;;;;31.00;84.30;;;;;;1830389;77;20192;-92
2021/08/08 14:28:24;;;;;;;;;;;31.00;84.30;;;;;;1831529;77;20147;-91
2021/08/08 14:30:55;;;;;;;;;;;31.00;84.20;;;;;;1842821;76;20189;-90
2021/08/08 14:33:29;;;;;;;;;;;31.00;84.70;;;;;;1837283;76;20408;-90
2021/08/08 14:36:06;;;;;;;;;;;31.10;84.90;;;;;;1839191;77;20211;-91
2021/08/08 14:38:35;;;;;;;;;;;31.10;85.20;;;;;;1818304;77;20170;-90
2021/08/08 14:41:04;;;;;;;;;;;31.00;85.50;;;;;;1837050;76;20166;-91
2021/08/08 14:43:42;;;;;;;;;;;31.00;85.70;;;;;;1839132;76;20190;-88
2021/08/08 14:46:08;;;;;;;;;;;30.90;85.70;;;;;;1836914;77;20225;-89
2021/08/08 14:48:40;;;;;;;;;;;30.90;85.80;;;;;;1822667;77;20169;-92
2021/08/08 14:51:09;;;;;;;;;;;30.90;85.70;;;;;;1848853;76;20417;-93
2021/08/08 14:53:39;;;;;;;;;;;30.80;86.00;;;;;;1825762;77;20285;-90
2021/08/08 14:56:08;;;;;;;;;;;30.80;86.20;;;;;;1886065;74;20139;-91
2021/08/08 14:58:42;;;;;;;;;;;30.70;86.10;;;;;;1896642;74;20198;-91
2021/08/08 15:01:15;;;;;;;;;;;30.70;86.40;;;;;;1882672;74;20199;-88
2021/08/08 15:03:45;;;;;;;;;;;30.80;86.40;;;;;;1884223;74;20153;-90